PAL53M RPVP-RPLL
Flight info
| Callsign | PAL53M |
|---|---|
| Flight time | 0h 55m |
| Altitude | 39000 |
| Route | DABOY1E DABOY W281 LEGED N884 LUBAN LUBAN7R |
| Aircraft | B77W/H-SDE1E2E3FGHIJ2J3J4J5M1RWXY/LB1D1 |
Departure
| Time | 2026-04-22 07:53 |
|---|---|
| Airport | Puerto Princesa International Airport / PAF Antonio Bautista Air Base (RPVP) |
Arrival
| Time | 2026-04-22 08:48 |
|---|---|
| Airport | Ninoy Aquino International Airport (RPLL) |
| Time | Latitude | Longitude | Altitude | Speed | Heading |
|---|---|---|---|---|---|
| 2026-04-22 07:45 | 9.74517 | 118.75031 | 60 ft | 0 kts | 2° |
| 2026-04-22 07:49 | 9.74509 | 118.75031 | 60 ft | 2 kts | 2° |
| 2026-04-22 07:49 | 9.74493 | 118.75030 | 64 ft | 3 kts | 2° |
| 2026-04-22 07:49 | 9.74474 | 118.75029 | 59 ft | 3 kts | 3° |
| 2026-04-22 07:49 | 9.74455 | 118.75028 | 59 ft | 3 kts | 340° |
| 2026-04-22 07:50 | 9.74440 | 118.75039 | 59 ft | 3 kts | 317° |
| 2026-04-22 07:50 | 9.74426 | 118.75052 | 59 ft | 3 kts | 310° |
| 2026-04-22 07:50 | 9.74418 | 118.75069 | 58 ft | 3 kts | 269° |
| 2026-04-22 07:50 | 9.74418 | 118.75073 | 58 ft | 0 kts | 268° |
| 2026-04-22 07:51 | 9.74418 | 118.75004 | 63 ft | 19 kts | 271° |
| 2026-04-22 07:51 | 9.74422 | 118.74846 | 72 ft | 23 kts | 272° |
| 2026-04-22 07:52 | 9.74395 | 118.74713 | 66 ft | 19 kts | 217° |
| 2026-04-22 07:52 | 9.74281 | 118.74734 | 68 ft | 18 kts | 136° |
| 2026-04-22 07:52 | 9.74257 | 118.74928 | 70 ft | 60 kts | 93° |
| 2026-04-22 07:52 | 9.74219 | 118.75793 | 110 ft | 179 kts | 92° |
| 2026-04-22 07:53 | 9.74160 | 118.77168 | 1354 ft | 200 kts | 94° |
| 2026-04-22 07:53 | 9.74316 | 118.78595 | 2846 ft | 218 kts | 71° |
| 2026-04-22 07:53 | 9.75354 | 118.79820 | 3529 ft | 246 kts | 31° |
| 2026-04-22 07:53 | 9.77054 | 118.80346 | 4351 ft | 264 kts | 14° |
| 2026-04-22 07:54 | 9.78887 | 118.80728 | 5342 ft | 274 kts | 14° |
| 2026-04-22 07:54 | 9.80753 | 118.81143 | 6412 ft | 280 kts | 15° |
| 2026-04-22 07:54 | 9.82672 | 118.81601 | 7446 ft | 287 kts | 15° |
| 2026-04-22 07:54 | 9.84647 | 118.82095 | 8370 ft | 296 kts | 15° |
| 2026-04-22 07:55 | 9.86666 | 118.82612 | 9436 ft | 301 kts | 15° |
| 2026-04-22 07:55 | 9.88719 | 118.83139 | 10404 ft | 309 kts | 14° |
| 2026-04-22 07:55 | 9.90897 | 118.83421 | 10958 ft | 329 kts | 1° |
| 2026-04-22 07:55 | 9.93298 | 118.83376 | 11210 ft | 361 kts | 356° |
| 2026-04-22 07:56 | 9.95912 | 118.83223 | 11534 ft | 387 kts | 356° |
| 2026-04-22 07:56 | 9.98638 | 118.83068 | 12374 ft | 397 kts | 356° |
| 2026-04-22 07:56 | 10.01420 | 118.82938 | 13307 ft | 402 kts | 357° |
| 2026-04-22 07:56 | 10.04233 | 118.82833 | 14220 ft | 406 kts | 357° |
| 2026-04-22 07:57 | 10.07075 | 118.82742 | 15085 ft | 410 kts | 357° |
| 2026-04-22 07:57 | 10.09903 | 118.82658 | 15923 ft | 414 kts | 357° |
| 2026-04-22 07:57 | 10.12807 | 118.82573 | 16740 ft | 419 kts | 357° |
| 2026-04-22 07:57 | 10.15736 | 118.82485 | 17547 ft | 423 kts | 357° |
| 2026-04-22 07:58 | 10.18699 | 118.82394 | 18295 ft | 428 kts | 357° |
| 2026-04-22 07:58 | 10.21697 | 118.82300 | 18964 ft | 433 kts | 357° |
| 2026-04-22 07:58 | 10.24733 | 118.82205 | 19603 ft | 438 kts | 357° |
| 2026-04-22 07:58 | 10.27808 | 118.82108 | 20227 ft | 444 kts | 358° |
| 2026-04-22 07:59 | 10.30875 | 118.82012 | 20866 ft | 449 kts | 358° |
| 2026-04-22 07:59 | 10.34015 | 118.81915 | 21479 ft | 454 kts | 358° |
| 2026-04-22 07:59 | 10.37195 | 118.81817 | 22068 ft | 460 kts | 358° |
| 2026-04-22 07:59 | 10.40410 | 118.81716 | 22701 ft | 464 kts | 359° |
| 2026-04-22 08:00 | 10.43644 | 118.81719 | 23344 ft | 467 kts | 2° |
| 2026-04-22 08:00 | 10.46905 | 118.81914 | 23853 ft | 471 kts | 5° |
| 2026-04-22 08:00 | 10.50184 | 118.82192 | 24369 ft | 475 kts | 5° |
| 2026-04-22 08:00 | 10.53485 | 118.82489 | 24888 ft | 477 kts | 5° |
| 2026-04-22 08:01 | 10.56812 | 118.82774 | 25399 ft | 481 kts | 5° |
| 2026-04-22 08:01 | 10.60161 | 118.83041 | 25888 ft | 484 kts | 4° |
| 2026-04-22 08:01 | 10.63541 | 118.83292 | 26386 ft | 487 kts | 4° |
| 2026-04-22 08:01 | 10.66933 | 118.83533 | 26893 ft | 490 kts | 4° |
| 2026-04-22 08:02 | 10.70302 | 118.83767 | 27341 ft | 493 kts | 4° |
| 2026-04-22 08:02 | 10.73735 | 118.84004 | 27830 ft | 496 kts | 4° |
| 2026-04-22 08:02 | 10.77186 | 118.84243 | 28301 ft | 498 kts | 4° |
| 2026-04-22 08:02 | 10.80656 | 118.84484 | 28729 ft | 501 kts | 4° |
| 2026-04-22 08:03 | 10.84150 | 118.84729 | 29154 ft | 504 kts | 4° |
| 2026-04-22 08:03 | 10.87661 | 118.84975 | 29570 ft | 506 kts | 3° |
| 2026-04-22 08:03 | 10.91177 | 118.85222 | 30039 ft | 506 kts | 3° |
| 2026-04-22 08:03 | 10.94689 | 118.85469 | 30506 ft | 505 kts | 3° |
| 2026-04-22 08:04 | 10.98196 | 118.85716 | 30989 ft | 504 kts | 3° |
| 2026-04-22 08:04 | 11.01705 | 118.85962 | 31430 ft | 505 kts | 3° |
| 2026-04-22 08:04 | 11.05164 | 118.86205 | 31884 ft | 504 kts | 3° |
| 2026-04-22 08:04 | 11.08661 | 118.86451 | 32404 ft | 503 kts | 3° |
| 2026-04-22 08:05 | 11.12150 | 118.86696 | 32895 ft | 502 kts | 3° |
| 2026-04-22 08:05 | 11.15639 | 118.86942 | 33382 ft | 501 kts | 3° |
| 2026-04-22 08:05 | 11.19120 | 118.87188 | 33868 ft | 501 kts | 3° |
| 2026-04-22 08:05 | 11.22599 | 118.87434 | 34271 ft | 500 kts | 3° |
| 2026-04-22 08:06 | 11.26074 | 118.87680 | 34652 ft | 500 kts | 2° |
| 2026-04-22 08:06 | 11.29562 | 118.87926 | 34852 ft | 503 kts | 2° |
| 2026-04-22 08:06 | 11.36515 | 118.88418 | 34896 ft | 505 kts | 2° |
| 2026-04-22 08:07 | 11.40034 | 118.88667 | 35216 ft | 506 kts | 2° |
| 2026-04-22 08:07 | 11.43540 | 118.88915 | 35646 ft | 503 kts | 2° |
| 2026-04-22 08:07 | 11.47030 | 118.89163 | 36108 ft | 501 kts | 2° |
| 2026-04-22 08:07 | 11.50504 | 118.89409 | 36547 ft | 499 kts | 2° |
| 2026-04-22 08:08 | 11.53963 | 118.89654 | 36953 ft | 497 kts | 2° |
| 2026-04-22 08:08 | 11.57412 | 118.89899 | 37306 ft | 497 kts | 2° |
| 2026-04-22 08:08 | 11.59702 | 118.90061 | 37533 ft | 497 kts | 2° |
| 2026-04-22 08:08 | 11.64280 | 118.90385 | 37976 ft | 497 kts | 2° |
| 2026-04-22 08:09 | 11.67734 | 118.90630 | 38335 ft | 496 kts | 2° |
| 2026-04-22 08:09 | 11.70056 | 118.90794 | 38575 ft | 495 kts | 2° |
| 2026-04-22 08:09 | 11.73500 | 118.91039 | 38767 ft | 496 kts | 2° |
| 2026-04-22 08:09 | 11.76957 | 118.91284 | 38798 ft | 498 kts | 2° |
| 2026-04-22 08:10 | 11.83808 | 118.91770 | 38830 ft | 494 kts | 2° |
| 2026-04-22 08:10 | 11.90658 | 118.92257 | 38839 ft | 492 kts | 2° |
| 2026-04-22 08:11 | 11.97476 | 118.92742 | 38835 ft | 490 kts | 2° |
| 2026-04-22 08:11 | 12.04288 | 118.93229 | 38837 ft | 490 kts | 2° |
| 2026-04-22 08:12 | 12.11051 | 118.93711 | 38837 ft | 490 kts | 2° |
| 2026-04-22 08:12 | 12.17863 | 118.94192 | 38838 ft | 491 kts | 2° |
| 2026-04-22 08:13 | 12.24698 | 118.94678 | 38843 ft | 492 kts | 2° |
| 2026-04-22 08:13 | 12.31536 | 118.95165 | 38838 ft | 493 kts | 2° |
| 2026-04-22 08:14 | 12.38386 | 118.95654 | 38839 ft | 493 kts | 2° |
| 2026-04-22 08:14 | 12.45236 | 118.96142 | 38837 ft | 493 kts | 2° |
| 2026-04-22 08:15 | 12.52083 | 118.96631 | 38848 ft | 493 kts | 2° |
| 2026-04-22 08:15 | 12.58937 | 118.97120 | 38843 ft | 493 kts | 2° |
| 2026-04-22 08:16 | 12.65742 | 118.97606 | 38840 ft | 493 kts | 2° |
| 2026-04-22 08:16 | 12.72622 | 118.98098 | 38841 ft | 492 kts | 2° |
| 2026-04-22 08:17 | 12.79417 | 118.98584 | 38843 ft | 492 kts | 2° |
| 2026-04-22 08:17 | 12.86241 | 118.99072 | 38845 ft | 491 kts | 2° |
| 2026-04-22 08:18 | 12.93063 | 118.99560 | 38843 ft | 491 kts | 2° |
| 2026-04-22 08:18 | 12.99809 | 119.00502 | 38837 ft | 491 kts | 20° |
| 2026-04-22 08:19 | 13.02854 | 119.02093 | 38853 ft | 493 kts | 34° |
| 2026-04-22 08:19 | 13.05439 | 119.04402 | 38838 ft | 494 kts | 50° |
| 2026-04-22 08:19 | 13.09591 | 119.09996 | 38845 ft | 494 kts | 53° |
| 2026-04-22 08:20 | 13.13757 | 119.15649 | 38852 ft | 497 kts | 52° |
| 2026-04-22 08:20 | 13.17991 | 119.21287 | 38850 ft | 500 kts | 52° |
| 2026-04-22 08:21 | 13.22243 | 119.26898 | 38845 ft | 501 kts | 52° |
| 2026-04-22 08:21 | 13.26533 | 119.32556 | 38843 ft | 502 kts | 52° |
| 2026-04-22 08:22 | 13.30818 | 119.38217 | 38840 ft | 501 kts | 52° |
| 2026-04-22 08:22 | 13.35119 | 119.43905 | 37869 ft | 514 kts | 52° |
| 2026-04-22 08:23 | 13.37318 | 119.46815 | 37078 ft | 513 kts | 52° |
| 2026-04-22 08:23 | 13.39504 | 119.49709 | 36255 ft | 513 kts | 52° |
| 2026-04-22 08:23 | 13.41659 | 119.52566 | 35515 ft | 511 kts | 52° |
| 2026-04-22 08:23 | 13.43866 | 119.55492 | 34612 ft | 513 kts | 52° |
| 2026-04-22 08:24 | 13.46033 | 119.58364 | 33682 ft | 515 kts | 52° |
| 2026-04-22 08:24 | 13.48234 | 119.61282 | 32613 ft | 518 kts | 52° |
| 2026-04-22 08:24 | 13.50446 | 119.64216 | 31619 ft | 518 kts | 52° |
| 2026-04-22 08:24 | 13.52649 | 119.67136 | 30951 ft | 512 kts | 52° |
| 2026-04-22 08:25 | 13.54819 | 119.70013 | 30264 ft | 507 kts | 52° |
| 2026-04-22 08:25 | 13.56971 | 119.72867 | 29559 ft | 502 kts | 51° |
| 2026-04-22 08:25 | 13.59103 | 119.75698 | 28843 ft | 497 kts | 51° |
| 2026-04-22 08:25 | 13.61182 | 119.78459 | 28190 ft | 492 kts | 51° |
| 2026-04-22 08:26 | 13.63266 | 119.81230 | 27557 ft | 487 kts | 52° |
| 2026-04-22 08:26 | 13.65330 | 119.83974 | 26910 ft | 482 kts | 51° |
| 2026-04-22 08:26 | 13.67381 | 119.86701 | 26290 ft | 478 kts | 51° |
| 2026-04-22 08:26 | 13.69404 | 119.89393 | 25660 ft | 475 kts | 51° |
| 2026-04-22 08:27 | 13.71419 | 119.92074 | 25025 ft | 472 kts | 51° |
| 2026-04-22 08:27 | 13.73418 | 119.94735 | 24403 ft | 470 kts | 51° |
| 2026-04-22 08:27 | 13.75411 | 119.97388 | 23880 ft | 465 kts | 51° |
| 2026-04-22 08:27 | 13.77363 | 119.99987 | 23697 ft | 452 kts | 51° |
| 2026-04-22 08:28 | 13.79263 | 120.02519 | 23486 ft | 441 kts | 51° |
| 2026-04-22 08:28 | 13.81113 | 120.04983 | 23264 ft | 430 kts | 51° |
| 2026-04-22 08:28 | 13.82920 | 120.07392 | 23069 ft | 415 kts | 51° |
| 2026-04-22 08:28 | 13.84676 | 120.09671 | 22877 ft | 399 kts | 46° |
| 2026-04-22 08:29 | 13.86799 | 120.11435 | 22552 ft | 390 kts | 26° |
| 2026-04-22 08:29 | 13.89216 | 120.12527 | 22172 ft | 382 kts | 21° |
| 2026-04-22 08:29 | 13.91662 | 120.13583 | 21764 ft | 380 kts | 21° |
| 2026-04-22 08:29 | 13.94095 | 120.14649 | 21363 ft | 379 kts | 22° |
| 2026-04-22 08:30 | 13.96515 | 120.15722 | 20959 ft | 378 kts | 22° |
| 2026-04-22 08:30 | 13.98920 | 120.16796 | 20579 ft | 376 kts | 22° |
| 2026-04-22 08:30 | 14.01312 | 120.17870 | 20199 ft | 374 kts | 22° |
| 2026-04-22 08:30 | 14.03692 | 120.18941 | 19799 ft | 373 kts | 22° |
| 2026-04-22 08:31 | 14.06041 | 120.20002 | 19497 ft | 361 kts | 22° |
| 2026-04-22 08:31 | 14.08307 | 120.21026 | 18989 ft | 351 kts | 23° |
| 2026-04-22 08:31 | 14.12646 | 120.22984 | 18141 ft | 328 kts | 23° |
| 2026-04-22 08:32 | 14.14699 | 120.23911 | 17738 ft | 316 kts | 23° |
| 2026-04-22 08:32 | 14.16678 | 120.24805 | 17390 ft | 315 kts | 23° |
| 2026-04-22 08:32 | 14.18699 | 120.25717 | 17040 ft | 320 kts | 23° |
| 2026-04-22 08:32 | 14.20764 | 120.26649 | 16687 ft | 328 kts | 23° |
| 2026-04-22 08:33 | 14.22864 | 120.27598 | 16312 ft | 330 kts | 23° |
| 2026-04-22 08:33 | 14.24971 | 120.28550 | 15944 ft | 329 kts | 23° |
| 2026-04-22 08:33 | 14.27064 | 120.29496 | 15570 ft | 328 kts | 23° |
| 2026-04-22 08:33 | 14.29154 | 120.30441 | 15198 ft | 327 kts | 24° |
| 2026-04-22 08:34 | 14.31230 | 120.31379 | 14834 ft | 326 kts | 24° |
| 2026-04-22 08:34 | 14.33302 | 120.32317 | 14467 ft | 325 kts | 24° |
| 2026-04-22 08:34 | 14.35370 | 120.33252 | 14096 ft | 324 kts | 24° |
| 2026-04-22 08:34 | 14.37436 | 120.34187 | 13734 ft | 324 kts | 24° |
| 2026-04-22 08:35 | 14.39497 | 120.35120 | 13330 ft | 323 kts | 24° |
| 2026-04-22 08:35 | 14.41548 | 120.36048 | 12946 ft | 319 kts | 24° |
| 2026-04-22 08:35 | 14.43497 | 120.37044 | 12551 ft | 306 kts | 36° |
| 2026-04-22 08:35 | 14.44935 | 120.38578 | 12282 ft | 291 kts | 57° |
| 2026-04-22 08:36 | 14.45931 | 120.40305 | 12043 ft | 279 kts | 60° |
| 2026-04-22 08:36 | 14.46895 | 120.42050 | 11735 ft | 275 kts | 60° |
| 2026-04-22 08:36 | 14.47845 | 120.43776 | 11455 ft | 286 kts | 60° |
| 2026-04-22 08:36 | 14.48852 | 120.45604 | 11133 ft | 298 kts | 60° |
| 2026-04-22 08:37 | 14.49894 | 120.47486 | 10645 ft | 306 kts | 60° |
| 2026-04-22 08:37 | 14.50954 | 120.49395 | 10249 ft | 307 kts | 60° |
| 2026-04-22 08:37 | 14.52007 | 120.51287 | 10086 ft | 300 kts | 60° |
| 2026-04-22 08:37 | 14.53017 | 120.53097 | 9881 ft | 281 kts | 60° |
| 2026-04-22 08:38 | 14.53967 | 120.54799 | 9483 ft | 265 kts | 60° |
| 2026-04-22 08:38 | 14.54858 | 120.56395 | 9188 ft | 249 kts | 60° |
| 2026-04-22 08:38 | 14.55717 | 120.57935 | 8967 ft | 255 kts | 60° |
| 2026-04-22 08:38 | 14.56645 | 120.59600 | 8682 ft | 279 kts | 60° |
| 2026-04-22 08:39 | 14.57638 | 120.61381 | 8350 ft | 288 kts | 60° |
| 2026-04-22 08:39 | 14.58639 | 120.63175 | 8033 ft | 288 kts | 60° |
| 2026-04-22 08:39 | 14.59599 | 120.64955 | 7786 ft | 277 kts | 67° |
| 2026-04-22 08:39 | 14.59949 | 120.66869 | 7596 ft | 269 kts | 94° |
| 2026-04-22 08:40 | 14.59463 | 120.68700 | 7357 ft | 265 kts | 116° |
| 2026-04-22 08:40 | 14.58445 | 120.70255 | 7066 ft | 266 kts | 131° |
| 2026-04-22 08:40 | 14.56979 | 120.71403 | 6757 ft | 265 kts | 148° |
| 2026-04-22 08:40 | 14.55392 | 120.72306 | 6440 ft | 256 kts | 149° |
| 2026-04-22 08:41 | 14.53865 | 120.73158 | 6293 ft | 240 kts | 149° |
| 2026-04-22 08:41 | 14.52449 | 120.73962 | 6161 ft | 224 kts | 148° |
| 2026-04-22 08:41 | 14.51124 | 120.74723 | 5958 ft | 215 kts | 148° |
| 2026-04-22 08:41 | 14.49789 | 120.75506 | 5760 ft | 226 kts | 148° |
| 2026-04-22 08:42 | 14.48407 | 120.76320 | 5490 ft | 230 kts | 148° |
| 2026-04-22 08:42 | 14.47036 | 120.77130 | 5197 ft | 229 kts | 148° |
| 2026-04-22 08:42 | 14.45658 | 120.77947 | 4936 ft | 228 kts | 147° |
| 2026-04-22 08:42 | 14.44272 | 120.78770 | 4666 ft | 226 kts | 149° |
| 2026-04-22 08:43 | 14.42924 | 120.79569 | 4378 ft | 225 kts | 149° |
| 2026-04-22 08:43 | 14.41582 | 120.80385 | 4082 ft | 220 kts | 142° |
| 2026-04-22 08:43 | 14.40678 | 120.81591 | 3808 ft | 213 kts | 107° |
| 2026-04-22 08:43 | 14.40542 | 120.83097 | 3594 ft | 214 kts | 82° |
| 2026-04-22 08:44 | 14.41131 | 120.84524 | 3326 ft | 220 kts | 57° |
| 2026-04-22 08:44 | 14.41960 | 120.85860 | 3062 ft | 219 kts | 61° |
| 2026-04-22 08:44 | 14.42697 | 120.87198 | 2724 ft | 209 kts | 62° |
| 2026-04-22 08:44 | 14.43390 | 120.88459 | 2458 ft | 195 kts | 62° |
| 2026-04-22 08:45 | 14.44042 | 120.89636 | 2233 ft | 190 kts | 63° |
| 2026-04-22 08:45 | 14.44699 | 120.90824 | 2002 ft | 191 kts | 64° |
| 2026-04-22 08:45 | 14.45352 | 120.92008 | 1756 ft | 185 kts | 64° |
| 2026-04-22 08:45 | 14.45971 | 120.93121 | 1514 ft | 173 kts | 65° |
| 2026-04-22 08:46 | 14.46542 | 120.94157 | 1269 ft | 157 kts | 64° |
| 2026-04-22 08:46 | 14.47057 | 120.95084 | 1071 ft | 143 kts | 66° |
| 2026-04-22 08:46 | 14.47550 | 120.95981 | 960 ft | 144 kts | 66° |
| 2026-04-22 08:46 | 14.48041 | 120.96862 | 789 ft | 139 kts | 66° |
| 2026-04-22 08:47 | 14.48513 | 120.97718 | 637 ft | 137 kts | 64° |
| 2026-04-22 08:47 | 14.48987 | 120.98579 | 456 ft | 139 kts | 64° |
| 2026-04-22 08:47 | 14.49469 | 120.99440 | 243 ft | 141 kts | 63° |
| 2026-04-22 08:47 | 14.49956 | 121.00324 | 59 ft | 140 kts | 64° |
| 2026-04-22 08:48 | 14.50399 | 121.01124 | 47 ft | 114 kts | 60° |
| 2026-04-22 08:48 | 14.50729 | 121.01725 | 50 ft | 78 kts | 59° |
| 2026-04-22 08:48 | 14.50941 | 121.02102 | 53 ft | 50 kts | 59° |
| 2026-04-22 08:48 | 14.51113 | 121.02288 | 56 ft | 17 kts | 34° |
| 2026-04-22 08:49 | 14.51168 | 121.02302 | 55 ft | 0 kts | 350° |
| 2026-04-22 08:49 | 14.51170 | 121.02302 | 55 ft | 1 kts | 350° |
| 2026-04-22 08:49 | 14.51184 | 121.02291 | 55 ft | 5 kts | 313° |
| 2026-04-22 08:50 | 14.51170 | 121.02227 | 53 ft | 14 kts | 241° |
| 2026-04-22 08:50 | 14.51112 | 121.02121 | 52 ft | 18 kts | 240° |
| 2026-04-22 08:50 | 14.51055 | 121.02017 | 54 ft | 13 kts | 240° |
| 2026-04-22 08:50 | 14.51012 | 121.01938 | 57 ft | 12 kts | 240° |
| 2026-04-22 08:51 | 14.50969 | 121.01862 | 55 ft | 13 kts | 238° |
| 2026-04-22 08:51 | 14.50916 | 121.01770 | 53 ft | 17 kts | 241° |
| 2026-04-22 08:51 | 14.50895 | 121.01667 | 55 ft | 14 kts | 303° |
| 2026-04-22 08:51 | 14.50965 | 121.01594 | 53 ft | 14 kts | 315° |
| 2026-04-22 08:52 | 14.51038 | 121.01519 | 51 ft | 15 kts | 313° |
| 2026-04-22 08:52 | 14.51099 | 121.01453 | 52 ft | 8 kts | 314° |
| 2026-04-22 08:52 | 14.51107 | 121.01404 | 55 ft | 8 kts | 231° |
| 2026-04-22 08:52 | 14.51076 | 121.01374 | 55 ft | 3 kts | 220° |
| 2026-04-22 08:53 | 14.51072 | 121.01371 | 55 ft | 0 kts | 221° |